sensor_id;sensor_type;location;lat;lon;timestamp;P1;durP1;ratioP1;P2;durP2;ratioP2
44764;SDS011;30484;52.382;5.260;2023-03-12T00:00:06;23.30;;;7.95;;
44764;SDS011;30484;52.382;5.260;2023-03-12T00:02:37;25.73;;;8.25;;
44764;SDS011;30484;52.382;5.260;2023-03-12T00:05:05;17.77;;;8.07;;
44764;SDS011;30484;52.382;5.260;2023-03-12T00:07:34;20.00;;;8.75;;
44764;SDS011;30484;52.382;5.260;2023-03-12T00:10:05;17.23;;;8.57;;
44764;SDS011;30484;52.382;5.260;2023-03-12T00:12:35;19.00;;;8.07;;
44764;SDS011;30484;52.382;5.260;2023-03-12T00:15:04;20.90;;;8.30;;
44764;SDS011;30484;52.382;5.260;2023-03-12T00:17:34;22.52;;;8.30;;
44764;SDS011;30484;52.382;5.260;2023-03-12T00:20:03;20.15;;;8.30;;
44764;SDS011;30484;52.382;5.260;2023-03-12T00:22:33;19.45;;;9.00;;
44764;SDS011;30484;52.382;5.260;2023-03-12T00:25:01;16.50;;;8.18;;
44764;SDS011;30484;52.382;5.260;2023-03-12T00:27:33;24.35;;;8.38;;
44764;SDS011;30484;52.382;5.260;2023-03-12T00:30:01;23.73;;;8.32;;
44764;SDS011;30484;52.382;5.260;2023-03-12T00:32:31;21.38;;;7.72;;
44764;SDS011;30484;52.382;5.260;2023-03-12T00:34:59;20.42;;;7.50;;
44764;SDS011;30484;52.382;5.260;2023-03-12T00:37:28;17.42;;;7.00;;
44764;SDS011;30484;52.382;5.260;2023-03-12T00:39:58;21.30;;;7.50;;
44764;SDS011;30484;52.382;5.260;2023-03-12T00:42:28;19.15;;;8.10;;
44764;SDS011;30484;52.382;5.260;2023-03-12T00:44:57;22.23;;;7.30;;
44764;SDS011;30484;52.382;5.260;2023-03-12T00:47:25;19.35;;;7.20;;
44764;SDS011;30484;52.382;5.260;2023-03-12T00:49:53;14.40;;;6.80;;
44764;SDS011;30484;52.382;5.260;2023-03-12T00:52:21;16.67;;;7.10;;
44764;SDS011;30484;52.382;5.260;2023-03-12T00:54:50;14.88;;;7.10;;
44764;SDS011;30484;52.382;5.260;2023-03-12T00:57:18;11.80;;;6.78;;
44764;SDS011;30484;52.382;5.260;2023-03-12T00:59:48;16.27;;;7.40;;
44764;SDS011;30484;52.382;5.260;2023-03-12T01:02:16;18.45;;;7.75;;
44764;SDS011;30484;52.382;5.260;2023-03-12T01:04:45;17.30;;;7.38;;
44764;SDS011;30484;52.382;5.260;2023-03-12T01:07:13;20.67;;;8.32;;
44764;SDS011;30484;52.382;5.260;2023-03-12T01:09:41;18.23;;;7.82;;
44764;SDS011;30484;52.382;5.260;2023-03-12T01:12:09;18.02;;;7.38;;
44764;SDS011;30484;52.382;5.260;2023-03-12T01:14:38;18.23;;;8.00;;
44764;SDS011;30484;52.382;5.260;2023-03-12T01:17:07;18.02;;;8.23;;
44764;SDS011;30484;52.382;5.260;2023-03-12T01:19:36;20.15;;;7.97;;
44764;SDS011;30484;52.382;5.260;2023-03-12T01:22:04;18.08;;;7.90;;
44764;SDS011;30484;52.382;5.260;2023-03-12T01:24:33;20.30;;;7.95;;
44764;SDS011;30484;52.382;5.260;2023-03-12T01:27:01;18.25;;;7.40;;
44764;SDS011;30484;52.382;5.260;2023-03-12T01:29:29;25.02;;;7.57;;
44764;SDS011;30484;52.382;5.260;2023-03-12T01:31:57;21.02;;;8.27;;
44764;SDS011;30484;52.382;5.260;2023-03-12T01:34:27;18.27;;;6.95;;
44764;SDS011;30484;52.382;5.260;2023-03-12T01:36:56;16.67;;;7.55;;
44764;SDS011;30484;52.382;5.260;2023-03-12T01:39:24;20.17;;;7.45;;
44764;SDS011;30484;52.382;5.260;2023-03-12T01:41:52;19.75;;;7.15;;
44764;SDS011;30484;52.382;5.260;2023-03-12T01:44:20;16.17;;;6.88;;
44764;SDS011;30484;52.382;5.260;2023-03-12T01:46:49;12.88;;;6.40;;
44764;SDS011;30484;52.382;5.260;2023-03-12T01:49:18;15.60;;;7.22;;
44764;SDS011;30484;52.382;5.260;2023-03-12T01:51:53;19.80;;;6.68;;
44764;SDS011;30484;52.382;5.260;2023-03-12T01:56:57;14.80;;;5.40;;
44764;SDS011;30484;52.382;5.260;2023-03-12T01:59:29;16.63;;;6.57;;
44764;SDS011;30484;52.382;5.260;2023-03-12T02:02:03;17.45;;;6.03;;
44764;SDS011;30484;52.382;5.260;2023-03-12T02:04:33;14.82;;;6.10;;
44764;SDS011;30484;52.382;5.260;2023-03-12T02:07:06;15.77;;;6.10;;
44764;SDS011;30484;52.382;5.260;2023-03-12T02:09:39;21.45;;;5.53;;
44764;SDS011;30484;52.382;5.260;2023-03-12T02:12:09;15.75;;;6.25;;
44764;SDS011;30484;52.382;5.260;2023-03-12T02:14:38;19.05;;;5.45;;
44764;SDS011;30484;52.382;5.260;2023-03-12T02:17:07;12.52;;;5.93;;
44764;SDS011;30484;52.382;5.260;2023-03-12T02:19:37;12.40;;;5.13;;
44764;SDS011;30484;52.382;5.260;2023-03-12T02:22:15;12.77;;;5.15;;
44764;SDS011;30484;52.382;5.260;2023-03-12T02:24:45;13.52;;;5.60;;
44764;SDS011;30484;52.382;5.260;2023-03-12T02:27:20;13.50;;;5.13;;
44764;SDS011;30484;52.382;5.260;2023-03-12T02:29:49;14.95;;;5.13;;
44764;SDS011;30484;52.382;5.260;2023-03-12T02:32:19;10.07;;;4.65;;
44764;SDS011;30484;52.382;5.260;2023-03-12T02:34:53;15.45;;;5.13;;
44764;SDS011;30484;52.382;5.260;2023-03-12T02:37:23;8.30;;;4.38;;
44764;SDS011;30484;52.382;5.260;2023-03-12T02:39:53;12.98;;;4.75;;
44764;SDS011;30484;52.382;5.260;2023-03-12T02:42:28;22.20;;;5.05;;
44764;SDS011;30484;52.382;5.260;2023-03-12T02:44:57;12.48;;;5.13;;
44764;SDS011;30484;52.382;5.260;2023-03-12T02:47:26;18.70;;;5.20;;
44764;SDS011;30484;52.382;5.260;2023-03-12T02:49:54;12.85;;;4.70;;
44764;SDS011;30484;52.382;5.260;2023-03-12T02:52:23;12.48;;;5.07;;
44764;SDS011;30484;52.382;5.260;2023-03-12T02:54:51;13.38;;;4.97;;
44764;SDS011;30484;52.382;5.260;2023-03-12T02:57:19;12.60;;;4.72;;
44764;SDS011;30484;52.382;5.260;2023-03-12T02:59:49;13.18;;;4.75;;
44764;SDS011;30484;52.382;5.260;2023-03-12T03:02:17;9.15;;;4.13;;
44764;SDS011;30484;52.382;5.260;2023-03-12T03:04:45;12.95;;;4.55;;
44764;SDS011;30484;52.382;5.260;2023-03-12T03:07:13;16.45;;;4.70;;
44764;SDS011;30484;52.382;5.260;2023-03-12T03:09:42;13.13;;;4.57;;
44764;SDS011;30484;52.382;5.260;2023-03-12T03:12:10;11.20;;;4.55;;
44764;SDS011;30484;52.382;5.260;2023-03-12T03:14:39;8.45;;;4.10;;
44764;SDS011;30484;52.382;5.260;2023-03-12T03:17:08;12.65;;;4.50;;
44764;SDS011;30484;52.382;5.260;2023-03-12T03:19:37;10.85;;;4.28;;
44764;SDS011;30484;52.382;5.260;2023-03-12T03:22:05;11.15;;;3.75;;
44764;SDS011;30484;52.382;5.260;2023-03-12T03:24:34;13.13;;;4.28;;
44764;SDS011;30484;52.382;5.260;2023-03-12T03:27:03;10.50;;;3.78;;
44764;SDS011;30484;52.382;5.260;2023-03-12T03:29:31;11.75;;;3.88;;
44764;SDS011;30484;52.382;5.260;2023-03-12T03:31:59;20.48;;;4.32;;
44764;SDS011;30484;52.382;5.260;2023-03-12T03:34:29;11.30;;;4.03;;
44764;SDS011;30484;52.382;5.260;2023-03-12T03:36:57;11.57;;;4.47;;
44764;SDS011;30484;52.382;5.260;2023-03-12T03:39:27;10.43;;;3.97;;
44764;SDS011;30484;52.382;5.260;2023-03-12T03:41:56;10.45;;;3.90;;
44764;SDS011;30484;52.382;5.260;2023-03-12T03:44:25;12.30;;;4.28;;
44764;SDS011;30484;52.382;5.260;2023-03-12T03:46:53;11.48;;;4.43;;
44764;SDS011;30484;52.382;5.260;2023-03-12T03:49:21;10.63;;;4.32;;
44764;SDS011;30484;52.382;5.260;2023-03-12T03:51:52;13.65;;;4.43;;
44764;SDS011;30484;52.382;5.260;2023-03-12T03:54:20;11.63;;;3.83;;
44764;SDS011;30484;52.382;5.260;2023-03-12T03:56:49;10.48;;;3.95;;
44764;SDS011;30484;52.382;5.260;2023-03-12T03:59:17;11.05;;;3.95;;
44764;SDS011;30484;52.382;5.260;2023-03-12T04:01:45;11.73;;;4.30;;
44764;SDS011;30484;52.382;5.260;2023-03-12T04:04:13;11.90;;;4.25;;
44764;SDS011;30484;52.382;5.260;2023-03-12T04:06:41;8.68;;;4.25;;
44764;SDS011;30484;52.382;5.260;2023-03-12T04:09:11;15.40;;;4.40;;
44764;SDS011;30484;52.382;5.260;2023-03-12T04:11:40;8.38;;;3.70;;
44764;SDS011;30484;52.382;5.260;2023-03-12T04:14:08;11.68;;;3.90;;
44764;SDS011;30484;52.382;5.260;2023-03-12T04:16:36;10.40;;;4.03;;
44764;SDS011;30484;52.382;5.260;2023-03-12T04:19:04;8.57;;;3.40;;
44764;SDS011;30484;52.382;5.260;2023-03-12T04:21:33;7.85;;;3.35;;
44764;SDS011;30484;52.382;5.260;2023-03-12T04:24:01;10.32;;;3.65;;
44764;SDS011;30484;52.382;5.260;2023-03-12T04:26:31;9.15;;;3.78;;
44764;SDS011;30484;52.382;5.260;2023-03-12T04:28:59;14.43;;;4.00;;
44764;SDS011;30484;52.382;5.260;2023-03-12T04:31:27;11.98;;;3.85;;
44764;SDS011;30484;52.382;5.260;2023-03-12T04:33:56;7.95;;;3.40;;
44764;SDS011;30484;52.382;5.260;2023-03-12T04:36:24;11.18;;;3.67;;
44764;SDS011;30484;52.382;5.260;2023-03-12T04:38:54;12.13;;;3.30;;
44764;SDS011;30484;52.382;5.260;2023-03-12T04:41:23;11.88;;;4.15;;
44764;SDS011;30484;52.382;5.260;2023-03-12T04:43:53;8.50;;;3.65;;
44764;SDS011;30484;52.382;5.260;2023-03-12T04:46:22;13.43;;;3.33;;
44764;SDS011;30484;52.382;5.260;2023-03-12T04:48:50;11.57;;;3.58;;
44764;SDS011;30484;52.382;5.260;2023-03-12T04:51:18;9.15;;;3.75;;
44764;SDS011;30484;52.382;5.260;2023-03-12T04:53:47;15.57;;;4.30;;
44764;SDS011;30484;52.382;5.260;2023-03-12T04:56:15;10.82;;;4.03;;
44764;SDS011;30484;52.382;5.260;2023-03-12T04:58:43;12.45;;;3.95;;
44764;SDS011;30484;52.382;5.260;2023-03-12T05:01:18;13.05;;;4.13;;
44764;SDS011;30484;52.382;5.260;2023-03-12T05:03:51;11.02;;;3.88;;
44764;SDS011;30484;52.382;5.260;2023-03-12T05:06:20;8.95;;;3.88;;
44764;SDS011;30484;52.382;5.260;2023-03-12T05:08:50;13.95;;;3.65;;
44764;SDS011;30484;52.382;5.260;2023-03-12T05:11:19;16.52;;;4.18;;
44764;SDS011;30484;52.382;5.260;2023-03-12T05:13:48;10.60;;;3.92;;
44764;SDS011;30484;52.382;5.260;2023-03-12T05:16:18;10.85;;;4.20;;
44764;SDS011;30484;52.382;5.260;2023-03-12T05:18:46;9.63;;;3.85;;
44764;SDS011;30484;52.382;5.260;2023-03-12T05:21:15;12.30;;;3.97;;
44764;SDS011;30484;52.382;5.260;2023-03-12T05:23:45;11.43;;;4.15;;
44764;SDS011;30484;52.382;5.260;2023-03-12T05:26:15;10.82;;;4.45;;
44764;SDS011;30484;52.382;5.260;2023-03-12T05:28:46;8.98;;;4.20;;
44764;SDS011;30484;52.382;5.260;2023-03-12T05:31:15;9.13;;;4.20;;
44764;SDS011;30484;52.382;5.260;2023-03-12T05:33:46;15.65;;;4.50;;
44764;SDS011;30484;52.382;5.260;2023-03-12T05:36:18;14.35;;;4.47;;
44764;SDS011;30484;52.382;5.260;2023-03-12T05:38:47;14.43;;;4.30;;
44764;SDS011;30484;52.382;5.260;2023-03-12T05:41:17;11.65;;;4.07;;
44764;SDS011;30484;52.382;5.260;2023-03-12T05:43:47;10.73;;;4.07;;
44764;SDS011;30484;52.382;5.260;2023-03-12T05:46:15;11.60;;;4.13;;
44764;SDS011;30484;52.382;5.260;2023-03-12T05:48:45;16.60;;;4.20;;
44764;SDS011;30484;52.382;5.260;2023-03-12T05:51:14;13.68;;;4.80;;
44764;SDS011;30484;52.382;5.260;2023-03-12T05:53:42;11.38;;;4.13;;
44764;SDS011;30484;52.382;5.260;2023-03-12T05:56:11;17.80;;;4.28;;
44764;SDS011;30484;52.382;5.260;2023-03-12T05:58:41;11.23;;;4.35;;
44764;SDS011;30484;52.382;5.260;2023-03-12T06:01:11;12.52;;;4.85;;
44764;SDS011;30484;52.382;5.260;2023-03-12T06:03:45;12.27;;;4.03;;
44764;SDS011;30484;52.382;5.260;2023-03-12T06:06:13;18.98;;;4.78;;
44764;SDS011;30484;52.382;5.260;2023-03-12T06:08:45;12.60;;;4.82;;
44764;SDS011;30484;52.382;5.260;2023-03-12T06:11:13;17.85;;;5.15;;
44764;SDS011;30484;52.382;5.260;2023-03-12T06:13:42;10.93;;;4.75;;
44764;SDS011;30484;52.382;5.260;2023-03-12T06:16:11;16.92;;;5.03;;
44764;SDS011;30484;52.382;5.260;2023-03-12T06:18:51;10.63;;;4.25;;
44764;SDS011;30484;52.382;5.260;2023-03-12T06:21:27;10.48;;;4.60;;
44764;SDS011;30484;52.382;5.260;2023-03-12T06:24:00;14.57;;;4.85;;
44764;SDS011;30484;52.382;5.260;2023-03-12T06:26:41;8.73;;;4.15;;
44764;SDS011;30484;52.382;5.260;2023-03-12T06:29:12;15.80;;;4.68;;
44764;SDS011;30484;52.382;5.260;2023-03-12T06:31:46;13.02;;;4.82;;
44764;SDS011;30484;52.382;5.260;2023-03-12T06:34:19;12.32;;;4.68;;
44764;SDS011;30484;52.382;5.260;2023-03-12T06:36:52;16.20;;;5.20;;
44764;SDS011;30484;52.382;5.260;2023-03-12T06:39:20;16.83;;;5.32;;
44764;SDS011;30484;52.382;5.260;2023-03-12T06:41:49;12.38;;;4.97;;
44764;SDS011;30484;52.382;5.260;2023-03-12T06:44:17;14.73;;;6.00;;
44764;SDS011;30484;52.382;5.260;2023-03-12T06:46:45;14.82;;;5.22;;
44764;SDS011;30484;52.382;5.260;2023-03-12T06:49:14;15.55;;;5.55;;
44764;SDS011;30484;52.382;5.260;2023-03-12T06:51:43;10.77;;;5.70;;
44764;SDS011;30484;52.382;5.260;2023-03-12T06:54:12;17.98;;;6.20;;
44764;SDS011;30484;52.382;5.260;2023-03-12T06:56:40;13.50;;;5.68;;
44764;SDS011;30484;52.382;5.260;2023-03-12T06:59:09;14.13;;;6.53;;
44764;SDS011;30484;52.382;5.260;2023-03-12T07:01:37;15.05;;;6.70;;
44764;SDS011;30484;52.382;5.260;2023-03-12T07:04:06;19.50;;;7.45;;
44764;SDS011;30484;52.382;5.260;2023-03-12T07:06:34;15.27;;;6.68;;
44764;SDS011;30484;52.382;5.260;2023-03-12T07:09:06;13.45;;;6.65;;
44764;SDS011;30484;52.382;5.260;2023-03-12T07:11:35;20.90;;;8.23;;
44764;SDS011;30484;52.382;5.260;2023-03-12T07:14:05;16.33;;;7.65;;
44764;SDS011;30484;52.382;5.260;2023-03-12T07:16:34;17.23;;;8.15;;
44764;SDS011;30484;52.382;5.260;2023-03-12T07:19:11;18.42;;;8.73;;
44764;SDS011;30484;52.382;5.260;2023-03-12T07:21:56;22.98;;;8.65;;
44764;SDS011;30484;52.382;5.260;2023-03-12T07:24:27;26.17;;;8.15;;
44764;SDS011;30484;52.382;5.260;2023-03-12T07:26:55;23.95;;;8.88;;
44764;SDS011;30484;52.382;5.260;2023-03-12T07:29:27;22.15;;;8.88;;
44764;SDS011;30484;52.382;5.260;2023-03-12T07:31:55;25.65;;;9.32;;
44764;SDS011;30484;52.382;5.260;2023-03-12T07:34:26;17.95;;;8.85;;
44764;SDS011;30484;52.382;5.260;2023-03-12T07:36:55;18.33;;;9.18;;
44764;SDS011;30484;52.382;5.260;2023-03-12T07:39:27;23.70;;;9.90;;
44764;SDS011;30484;52.382;5.260;2023-03-12T07:41:55;21.70;;;9.75;;
44764;SDS011;30484;52.382;5.260;2023-03-12T07:44:24;22.98;;;10.02;;
44764;SDS011;30484;52.382;5.260;2023-03-12T07:46:58;20.65;;;9.20;;
44764;SDS011;30484;52.382;5.260;2023-03-12T07:49:46;21.38;;;9.45;;
44764;SDS011;30484;52.382;5.260;2023-03-12T07:52:17;24.70;;;10.70;;
44764;SDS011;30484;52.382;5.260;2023-03-12T07:54:47;18.42;;;10.32;;
44764;SDS011;30484;52.382;5.260;2023-03-12T07:57:18;20.83;;;10.57;;
44764;SDS011;30484;52.382;5.260;2023-03-12T07:59:46;21.45;;;10.75;;
44764;SDS011;30484;52.382;5.260;2023-03-12T08:02:15;21.95;;;11.25;;
44764;SDS011;30484;52.382;5.260;2023-03-12T08:04:43;22.05;;;11.38;;
44764;SDS011;30484;52.382;5.260;2023-03-12T08:07:12;19.17;;;10.60;;
44764;SDS011;30484;52.382;5.260;2023-03-12T08:09:41;23.77;;;11.18;;
44764;SDS011;30484;52.382;5.260;2023-03-12T08:12:11;24.75;;;12.73;;
44764;SDS011;30484;52.382;5.260;2023-03-12T08:14:39;18.67;;;12.27;;
44764;SDS011;30484;52.382;5.260;2023-03-12T08:17:07;25.88;;;12.38;;
44764;SDS011;30484;52.382;5.260;2023-03-12T08:19:36;24.35;;;12.52;;
44764;SDS011;30484;52.382;5.260;2023-03-12T08:22:05;24.88;;;13.13;;
44764;SDS011;30484;52.382;5.260;2023-03-12T08:24:33;24.27;;;12.77;;
44764;SDS011;30484;52.382;5.260;2023-03-12T08:27:02;23.42;;;13.45;;
44764;SDS011;30484;52.382;5.260;2023-03-12T08:29:35;22.83;;;13.10;;
44764;SDS011;30484;52.382;5.260;2023-03-12T08:32:04;24.30;;;13.85;;
44764;SDS011;30484;52.382;5.260;2023-03-12T08:34:32;27.70;;;13.98;;
44764;SDS011;30484;52.382;5.260;2023-03-12T08:37:01;24.35;;;14.75;;
44764;SDS011;30484;52.382;5.260;2023-03-12T08:39:30;28.85;;;15.20;;
44764;SDS011;30484;52.382;5.260;2023-03-12T08:41:59;29.00;;;15.02;;
44764;SDS011;30484;52.382;5.260;2023-03-12T08:44:28;29.73;;;15.55;;
44764;SDS011;30484;52.382;5.260;2023-03-12T08:46:58;31.15;;;16.20;;
44764;SDS011;30484;52.382;5.260;2023-03-12T08:49:26;28.60;;;15.75;;
44764;SDS011;30484;52.382;5.260;2023-03-12T08:51:54;28.63;;;16.60;;
44764;SDS011;30484;52.382;5.260;2023-03-12T08:54:23;30.15;;;16.75;;
44764;SDS011;30484;52.382;5.260;2023-03-12T08:56:51;30.80;;;17.67;;
44764;SDS011;30484;52.382;5.260;2023-03-12T08:59:20;32.63;;;17.98;;
44764;SDS011;30484;52.382;5.260;2023-03-12T09:01:49;32.92;;;18.60;;
44764;SDS011;30484;52.382;5.260;2023-03-12T09:04:19;31.50;;;18.52;;
44764;SDS011;30484;52.382;5.260;2023-03-12T09:06:47;35.25;;;19.63;;
44764;SDS011;30484;52.382;5.260;2023-03-12T09:09:15;41.83;;;19.77;;
44764;SDS011;30484;52.382;5.260;2023-03-12T09:11:44;35.47;;;19.80;;
44764;SDS011;30484;52.382;5.260;2023-03-12T09:14:12;35.35;;;19.73;;
44764;SDS011;30484;52.382;5.260;2023-03-12T09:17:01;39.38;;;20.83;;
44764;SDS011;30484;52.382;5.260;2023-03-12T09:19:30;40.22;;;20.48;;
44764;SDS011;30484;52.382;5.260;2023-03-12T09:21:59;37.50;;;21.77;;
44764;SDS011;30484;52.382;5.260;2023-03-12T09:24:28;39.40;;;20.48;;
44764;SDS011;30484;52.382;5.260;2023-03-12T09:26:56;42.10;;;21.67;;
44764;SDS011;30484;52.382;5.260;2023-03-12T09:29:24;43.92;;;23.23;;
44764;SDS011;30484;52.382;5.260;2023-03-12T09:31:52;45.45;;;23.27;;
44764;SDS011;30484;52.382;5.260;2023-03-12T09:34:21;43.88;;;23.33;;
44764;SDS011;30484;52.382;5.260;2023-03-12T09:36:51;47.53;;;24.00;;
44764;SDS011;30484;52.382;5.260;2023-03-12T09:39:20;45.67;;;24.33;;
44764;SDS011;30484;52.382;5.260;2023-03-12T09:41:49;44.05;;;23.80;;
44764;SDS011;30484;52.382;5.260;2023-03-12T09:44:19;49.72;;;23.85;;
44764;SDS011;30484;52.382;5.260;2023-03-12T09:46:57;46.97;;;23.80;;
44764;SDS011;30484;52.382;5.260;2023-03-12T09:49:33;48.65;;;25.23;;
44764;SDS011;30484;52.382;5.260;2023-03-12T09:52:10;47.25;;;23.92;;
44764;SDS011;30484;52.382;5.260;2023-03-12T09:54:51;48.63;;;24.63;;
44764;SDS011;30484;52.382;5.260;2023-03-12T09:57:26;47.42;;;26.20;;
44764;SDS011;30484;52.382;5.260;2023-03-12T09:59:55;51.55;;;25.58;;
44764;SDS011;30484;52.382;5.260;2023-03-12T10:02:39;44.60;;;24.17;;
44764;SDS011;30484;52.382;5.260;2023-03-12T10:05:23;47.60;;;25.77;;
44764;SDS011;30484;52.382;5.260;2023-03-12T10:08:06;44.05;;;24.67;;
44764;SDS011;30484;52.382;5.260;2023-03-12T10:10:52;46.58;;;24.20;;
44764;SDS011;30484;52.382;5.260;2023-03-12T10:13:34;47.42;;;23.33;;
44764;SDS011;30484;52.382;5.260;2023-03-12T10:16:28;43.80;;;23.10;;
44764;SDS011;30484;52.382;5.260;2023-03-12T10:22:19;51.05;;;23.70;;
44764;SDS011;30484;52.382;5.260;2023-03-12T10:25:06;47.03;;;23.20;;
44764;SDS011;30484;52.382;5.260;2023-03-12T10:27:47;43.83;;;23.20;;
44764;SDS011;30484;52.382;5.260;2023-03-12T10:30:17;48.45;;;22.95;;
44764;SDS011;30484;52.382;5.260;2023-03-12T10:32:49;44.65;;;22.10;;
44764;SDS011;30484;52.382;5.260;2023-03-12T10:35:23;46.63;;;21.15;;
44764;SDS011;30484;52.382;5.260;2023-03-12T10:37:56;44.15;;;20.15;;
44764;SDS011;30484;52.382;5.260;2023-03-12T10:40:29;45.67;;;18.42;;
44764;SDS011;30484;52.382;5.260;2023-03-12T10:43:00;48.75;;;18.92;;
44764;SDS011;30484;52.382;5.260;2023-03-12T10:45:32;40.10;;;18.55;;
44764;SDS011;30484;52.382;5.260;2023-03-12T10:48:06;42.45;;;18.45;;
44764;SDS011;30484;52.382;5.260;2023-03-12T10:50:37;44.17;;;17.33;;
44764;SDS011;30484;52.382;5.260;2023-03-12T10:53:11;45.47;;;16.92;;
44764;SDS011;30484;52.382;5.260;2023-03-12T10:58:35;43.65;;;14.65;;
44764;SDS011;30484;52.382;5.260;2023-03-12T11:01:06;47.92;;;14.60;;
44764;SDS011;30484;52.382;5.260;2023-03-12T11:03:45;44.83;;;13.00;;
44764;SDS011;30484;52.382;5.260;2023-03-12T11:06:19;42.38;;;11.18;;
44764;SDS011;30484;52.382;5.260;2023-03-12T11:09:01;42.30;;;11.03;;
44764;SDS011;30484;52.382;5.260;2023-03-12T11:11:44;41.63;;;11.10;;
44764;SDS011;30484;52.382;5.260;2023-03-12T11:14:17;41.40;;;11.60;;
44764;SDS011;30484;52.382;5.260;2023-03-12T11:16:49;47.22;;;11.10;;
44764;SDS011;30484;52.382;5.260;2023-03-12T11:19:27;43.70;;;10.38;;
44764;SDS011;30484;52.382;5.260;2023-03-12T11:22:04;45.67;;;10.82;;
44764;SDS011;30484;52.382;5.260;2023-03-12T11:24:53;41.92;;;10.40;;
44764;SDS011;30484;52.382;5.260;2023-03-12T11:27:34;48.60;;;9.50;;
44764;SDS011;30484;52.382;5.260;2023-03-12T11:30:11;34.22;;;7.97;;
44764;SDS011;30484;52.382;5.260;2023-03-12T11:32:44;32.85;;;7.57;;
44764;SDS011;30484;52.382;5.260;2023-03-12T11:35:16;45.33;;;8.05;;
44764;SDS011;30484;52.382;5.260;2023-03-12T11:37:54;41.53;;;7.60;;
44764;SDS011;30484;52.382;5.260;2023-03-12T11:40:32;45.17;;;6.78;;
44764;SDS011;30484;52.382;5.260;2023-03-12T11:43:38;50.50;;;7.05;;
44764;SDS011;30484;52.382;5.260;2023-03-12T11:46:35;42.10;;;6.50;;
44764;SDS011;30484;52.382;5.260;2023-03-12T11:49:20;41.08;;;7.10;;
44764;SDS011;30484;52.382;5.260;2023-03-12T11:52:04;56.95;;;7.13;;
44764;SDS011;30484;52.382;5.260;2023-03-12T11:57:45;42.13;;;5.50;;
44764;SDS011;30484;52.382;5.260;2023-03-12T12:00:32;40.92;;;6.38;;
44764;SDS011;30484;52.382;5.260;2023-03-12T12:03:23;53.53;;;6.80;;
44764;SDS011;30484;52.382;5.260;2023-03-12T12:06:28;38.10;;;6.40;;
44764;SDS011;30484;52.382;5.260;2023-03-12T12:09:16;42.88;;;6.95;;
44764;SDS011;30484;52.382;5.260;2023-03-12T12:12:05;43.72;;;7.25;;
44764;SDS011;30484;52.382;5.260;2023-03-12T12:17:46;46.05;;;7.97;;
44764;SDS011;30484;52.382;5.260;2023-03-12T12:20:28;48.33;;;7.05;;
44764;SDS011;30484;52.382;5.260;2023-03-12T12:23:16;46.33;;;6.90;;
44764;SDS011;30484;52.382;5.260;2023-03-12T12:28:40;50.60;;;6.88;;
44764;SDS011;30484;52.382;5.260;2023-03-12T12:31:39;47.83;;;6.95;;
44764;SDS011;30484;52.382;5.260;2023-03-12T12:34:29;47.88;;;7.30;;
44764;SDS011;30484;52.382;5.260;2023-03-12T12:37:28;39.47;;;6.93;;
44764;SDS011;30484;52.382;5.260;2023-03-12T12:40:18;49.80;;;6.97;;
44764;SDS011;30484;52.382;5.260;2023-03-12T12:43:03;42.05;;;7.20;;
44764;SDS011;30484;52.382;5.260;2023-03-12T12:45:49;49.00;;;7.22;;
44764;SDS011;30484;52.382;5.260;2023-03-12T12:48:24;46.00;;;7.10;;
44764;SDS011;30484;52.382;5.260;2023-03-12T12:51:02;53.30;;;8.85;;
44764;SDS011;30484;52.382;5.260;2023-03-12T12:53:38;46.38;;;8.45;;
44764;SDS011;30484;52.382;5.260;2023-03-12T12:56:15;56.38;;;8.30;;
44764;SDS011;30484;52.382;5.260;2023-03-12T12:58:55;55.33;;;8.40;;
44764;SDS011;30484;52.382;5.260;2023-03-12T13:01:33;47.15;;;7.18;;
44764;SDS011;30484;52.382;5.260;2023-03-12T13:04:04;61.08;;;7.82;;
44764;SDS011;30484;52.382;5.260;2023-03-12T13:07:02;50.58;;;8.68;;
44764;SDS011;30484;52.382;5.260;2023-03-12T13:09:55;52.35;;;7.68;;
44764;SDS011;30484;52.382;5.260;2023-03-12T13:12:26;57.28;;;7.95;;
44764;SDS011;30484;52.382;5.260;2023-03-12T13:15:00;52.38;;;7.18;;
44764;SDS011;30484;52.382;5.260;2023-03-12T13:18:17;60.15;;;7.55;;
44764;SDS011;30484;52.382;5.260;2023-03-12T13:21:00;43.50;;;6.82;;
44764;SDS011;30484;52.382;5.260;2023-03-12T13:23:48;49.72;;;6.95;;
44764;SDS011;30484;52.382;5.260;2023-03-12T13:26:28;51.75;;;7.18;;
44764;SDS011;30484;52.382;5.260;2023-03-12T13:29:16;57.60;;;8.32;;
44764;SDS011;30484;52.382;5.260;2023-03-12T13:31:49;44.70;;;7.05;;
44764;SDS011;30484;52.382;5.260;2023-03-12T13:34:31;45.50;;;6.70;;
44764;SDS011;30484;52.382;5.260;2023-03-12T13:46:33;62.42;;;8.15;;
44764;SDS011;30484;52.382;5.260;2023-03-12T13:49:15;55.65;;;8.38;;
44764;SDS011;30484;52.382;5.260;2023-03-12T13:51:53;51.42;;;8.07;;
44764;SDS011;30484;52.382;5.260;2023-03-12T13:54:30;49.13;;;7.13;;
44764;SDS011;30484;52.382;5.260;2023-03-12T13:57:02;37.28;;;6.57;;
44764;SDS011;30484;52.382;5.260;2023-03-12T13:59:43;40.83;;;6.32;;
44764;SDS011;30484;52.382;5.260;2023-03-12T14:02:14;56.15;;;7.75;;
44764;SDS011;30484;52.382;5.260;2023-03-12T14:04:53;48.17;;;7.13;;
44764;SDS011;30484;52.382;5.260;2023-03-12T14:07:37;38.70;;;6.80;;
44764;SDS011;30484;52.382;5.260;2023-03-12T14:10:43;46.28;;;7.47;;
44764;SDS011;30484;52.382;5.260;2023-03-12T14:16:44;40.13;;;6.65;;
44764;SDS011;30484;52.382;5.260;2023-03-12T14:19:16;39.72;;;7.13;;
44764;SDS011;30484;52.382;5.260;2023-03-12T14:21:50;45.63;;;7.75;;
44764;SDS011;30484;52.382;5.260;2023-03-12T14:24:22;44.95;;;6.97;;
44764;SDS011;30484;52.382;5.260;2023-03-12T14:26:59;34.88;;;6.53;;
44764;SDS011;30484;52.382;5.260;2023-03-12T14:29:33;42.45;;;7.43;;
44764;SDS011;30484;52.382;5.260;2023-03-12T14:32:11;40.95;;;6.57;;
44764;SDS011;30484;52.382;5.260;2023-03-12T14:34:44;51.00;;;6.72;;
44764;SDS011;30484;52.382;5.260;2023-03-12T14:37:19;38.45;;;6.05;;
44764;SDS011;30484;52.382;5.260;2023-03-12T14:39:56;36.13;;;6.15;;
44764;SDS011;30484;52.382;5.260;2023-03-12T14:42:30;36.05;;;5.47;;
44764;SDS011;30484;52.382;5.260;2023-03-12T14:45:02;46.22;;;6.30;;
44764;SDS011;30484;52.382;5.260;2023-03-12T14:47:40;44.35;;;6.88;;
44764;SDS011;30484;52.382;5.260;2023-03-12T14:50:15;44.33;;;7.03;;
44764;SDS011;30484;52.382;5.260;2023-03-12T14:52:45;38.75;;;6.68;;
44764;SDS011;30484;52.382;5.260;2023-03-12T14:55:15;33.38;;;5.28;;
44764;SDS011;30484;52.382;5.260;2023-03-12T14:57:47;39.83;;;5.78;;
44764;SDS011;30484;52.382;5.260;2023-03-12T15:00:28;35.78;;;6.07;;
44764;SDS011;30484;52.382;5.260;2023-03-12T15:02:58;41.67;;;5.65;;
44764;SDS011;30484;52.382;5.260;2023-03-12T15:05:37;40.78;;;6.00;;
44764;SDS011;30484;52.382;5.260;2023-03-12T15:08:10;42.50;;;6.25;;
44764;SDS011;30484;52.382;5.260;2023-03-12T15:10:45;38.00;;;5.82;;
44764;SDS011;30484;52.382;5.260;2023-03-12T15:13:16;38.08;;;5.90;;
44764;SDS011;30484;52.382;5.260;2023-03-12T15:15:47;37.75;;;5.88;;
44764;SDS011;30484;52.382;5.260;2023-03-12T15:18:21;42.97;;;6.28;;
44764;SDS011;30484;52.382;5.260;2023-03-12T15:20:53;45.78;;;5.72;;
44764;SDS011;30484;52.382;5.260;2023-03-12T15:23:24;30.52;;;5.80;;
44764;SDS011;30484;52.382;5.260;2023-03-12T15:26:08;35.83;;;6.28;;
44764;SDS011;30484;52.382;5.260;2023-03-12T15:28:39;38.40;;;5.63;;
44764;SDS011;30484;52.382;5.260;2023-03-12T15:31:10;28.33;;;5.35;;
44764;SDS011;30484;52.382;5.260;2023-03-12T15:33:43;42.35;;;6.53;;